CYVR/YVR METAR and TAF weather

Enter ICAO airport designator
Station Type Date Time Source
CYVR METAR 2022/06/28 09:00 UTC NOAA

CYVR 280900Z 09010KT 20SM FEW230 16/13 A2990 RMK CC1 CC TR SLP126 DENSITY ALT 200FT


Station Type Date Time Source
CYVR Decoded METAR 2022/06/28 09:00 UTC NOAA

Vancouver International Air-Port, B. C., Canada (CYVR) 49-11N 123-10W 2M
Jun 28, 2022 - 05:00 AM EDT / 2022.06.28 0900 UTC
Wind: from the E (090 degrees) at 12 MPH (10 KT):0
Visibility: 20 mile(s):0
Sky conditions: mostly clear
Temperature: 60 F (16 C)
Dew Point: 55 F (13 C)
Relative Humidity: 82%
Pressure (altimeter): 29.9 in. Hg (1012 hPa)
ob: CYVR 280900Z 09010KT 20SM FEW230 16/13 A2990 RMK CC1 CC TR SLP126 DENSITY ALT 200FT
cycle: 9

Station Type Date Time Source
CYVR TAF 2022/06/28 09:42 UTC NOAA

TAF CYVR 280840Z 2809/2912 10006KT P6SM FEW220
FM281500 10010KT P6SM SCT050
TEMPO 2815/2821 BKN050
FM282100 16010KT P6SM BKN040
TEMPO 2821/2903 P6SM -SHRA VCTS SCT020CB OVC040
BECMG 2821/2823 28008KT
FM290300 13008KT P6SM SCT015 OVC030
TEMPO 2903/2912 5SM -SHRA BR BKN015 OVC030
RMK NXT FCST BY 281200Z

Example: see airport list